createdAt,value
2023-02-23T00:02:08.664Z,100075.91
2023-02-23T00:04:38.318Z,100072.53
2023-02-23T00:07:06.641Z,100067.91
2023-02-23T00:09:37.952Z,100069.69
2023-02-23T00:12:09.890Z,100070.38
2023-02-23T00:14:38.877Z,100078.03
2023-02-23T00:17:15.277Z,100075.25
2023-02-23T00:19:47.167Z,100076.28
2023-02-23T00:22:15.470Z,100069.19
2023-02-23T00:24:47.457Z,100070.69
2023-02-23T00:27:20.415Z,100076.31
2023-02-23T00:29:49.924Z,100071.22
2023-02-23T00:32:22.571Z,100071.81
2023-02-23T00:34:53.607Z,100073.22
2023-02-23T00:37:23.695Z,100066.91
2023-02-23T00:39:56.965Z,100078.59
2023-02-23T00:42:29.722Z,100074.16
2023-02-23T00:45:08.620Z,100070.06
2023-02-23T00:47:36.568Z,100072.94
2023-02-23T00:50:05.606Z,100069.69
2023-02-23T00:52:33.328Z,100071.84
2023-02-23T00:55:04.067Z,100065.59
2023-02-23T00:57:31.644Z,100069.44
2023-02-23T00:59:59.461Z,100063.59
2023-02-23T01:02:30.875Z,100071.66
2023-02-23T01:04:58.853Z,100069.44
2023-02-23T01:07:26.927Z,100067.16
2023-02-23T01:09:54.845Z,100060.91
2023-02-23T01:12:22.538Z,100074.06
2023-02-23T01:14:51.242Z,100073.69
2023-02-23T01:17:19.199Z,100074.16
2023-02-23T01:19:47.276Z,100071.16
2023-02-23T01:22:14.899Z,100066.75
2023-02-23T01:24:42.980Z,100064.50
2023-02-23T01:27:10.783Z,100067.00
2023-02-23T01:29:38.708Z,100066.34
2023-02-23T01:32:08.386Z,100069.94
2023-02-23T01:34:36.189Z,100073.06
2023-02-23T01:37:03.977Z,100073.31
2023-02-23T01:39:33.714Z,100067.72
2023-02-23T01:42:01.260Z,100070.19
2023-02-23T01:44:32.016Z,100070.41
2023-02-23T01:46:59.611Z,100065.63
2023-02-23T01:49:31.013Z,100061.59
2023-02-23T01:52:11.088Z,100048.72
2023-02-23T01:54:52.386Z,100050.53
2023-02-23T01:57:25.105Z,100061.88
2023-02-23T01:59:55.110Z,100061.00
2023-02-23T02:02:32.974Z,100058.53
2023-02-23T02:05:05.061Z,100052.94
2023-02-23T02:07:35.400Z,100051.38
2023-02-23T02:10:13.121Z,100059.41
2023-02-23T02:12:54.891Z,100055.06
2023-02-23T02:15:28.298Z,100061.88
2023-02-23T02:18:09.684Z,100059.84
2023-02-23T02:21:20.721Z,100057.72
2023-02-23T02:24:19.545Z,100048.31
2023-02-23T02:27:20.289Z,100058.91
2023-02-23T02:30:32.312Z,100055.34
2023-02-23T02:33:44.041Z,100060.91
2023-02-23T02:37:02.270Z,100063.91
2023-02-23T02:40:16.490Z,100059.97
2023-02-23T02:43:01.191Z,100061.88
2023-02-23T02:45:34.665Z,100059.97
2023-02-23T02:49:00.561Z,100057.28
2023-02-23T02:51:49.278Z,100061.53
2023-02-23T02:54:31.737Z,100058.44
2023-02-23T02:57:04.595Z,100066.13
2023-02-23T03:00:06.059Z,100063.91
2023-02-23T03:02:58.770Z,100066.56
2023-02-23T03:06:07.221Z,100069.13
2023-02-23T03:09:13.042Z,100071.47
2023-02-23T03:12:12.262Z,100073.00
2023-02-23T03:15:27.078Z,100076.47
2023-02-23T03:18:45.417Z,100072.91
2023-02-23T03:21:43.030Z,100066.91
2023-02-23T03:24:57.317Z,100066.38
2023-02-23T03:27:54.117Z,100072.84
2023-02-23T03:31:25.094Z,100080.81
2023-02-23T03:34:33.607Z,100082.53
2023-02-23T03:37:50.686Z,100086.44
2023-02-23T03:40:51.180Z,100087.91
2023-02-23T03:43:44.130Z,100092.72
2023-02-23T03:46:33.453Z,100084.34
2023-02-23T03:49:23.397Z,100085.13
2023-02-23T03:52:18.421Z,100091.16
2023-02-23T03:55:18.140Z,100085.25
2023-02-23T03:58:09.674Z,100090.03
2023-02-23T04:01:04.378Z,100094.38
2023-02-23T04:03:55.887Z,100093.22
2023-02-23T04:06:46.212Z,100095.09
2023-02-23T04:09:33.143Z,100094.19
2023-02-23T04:12:48.505Z,100093.09
2023-02-23T04:15:33.871Z,100098.66
2023-02-23T04:18:03.707Z,100103.31
2023-02-23T04:20:31.878Z,100094.25
2023-02-23T04:22:59.483Z,100090.97
2023-02-23T04:25:28.553Z,100101.88
2023-02-23T04:27:56.172Z,100094.81
2023-02-23T04:30:28.696Z,100090.91
2023-02-23T04:32:57.049Z,100100.03
2023-02-23T04:35:26.892Z,100092.22
2023-02-23T04:37:54.743Z,100090.97
2023-02-23T04:40:24.312Z,100090.41
2023-02-23T04:42:52.812Z,100088.81
2023-02-23T04:45:22.189Z,100092.59
2023-02-23T04:47:50.932Z,100082.56
2023-02-23T04:50:20.081Z,100081.78
2023-02-23T04:52:48.801Z,100088.22
2023-02-23T04:55:21.586Z,100081.63
2023-02-23T04:57:49.851Z,100080.09
2023-02-23T05:00:19.179Z,100085.75
2023-02-23T05:02:47.298Z,100087.16
2023-02-23T05:05:16.080Z,100084.03
2023-02-23T05:07:44.106Z,100085.94
2023-02-23T05:10:12.423Z,100096.13
2023-02-23T05:12:39.979Z,100082.00
2023-02-23T05:15:08.391Z,100085.00
2023-02-23T05:17:39.003Z,100091.78
2023-02-23T05:20:07.997Z,100088.31
2023-02-23T05:22:35.641Z,100088.66
2023-02-23T05:25:04.338Z,100093.19
2023-02-23T05:27:32.774Z,100086.63
2023-02-23T05:30:01.528Z,100089.28
2023-02-23T05:32:29.761Z,100084.59
2023-02-23T05:34:57.819Z,100085.69
2023-02-23T05:37:25.360Z,100089.16
2023-02-23T05:39:53.188Z,100104.19
2023-02-23T05:42:20.619Z,100107.00
2023-02-23T05:44:49.112Z,100106.03
2023-02-23T05:47:19.579Z,100115.00
2023-02-23T05:50:26.746Z,100104.75
2023-02-23T05:52:57.462Z,100110.88
2023-02-23T05:55:25.838Z,100115.78
2023-02-23T05:57:53.497Z,100119.66
2023-02-23T06:00:22.176Z,100117.47
2023-02-23T06:02:52.502Z,100123.28
2023-02-23T06:05:20.610Z,100123.41
2023-02-23T06:07:48.184Z,100128.69
2023-02-23T06:10:16.543Z,100127.03
2023-02-23T06:12:44.094Z,100135.72
2023-02-23T06:15:12.093Z,100131.03
2023-02-23T06:17:39.713Z,100131.97
2023-02-23T06:20:08.159Z,100132.00
2023-02-23T06:22:35.894Z,100129.06
2023-02-23T06:25:05.229Z,100129.56
2023-02-23T06:27:32.852Z,100128.69
2023-02-23T06:30:00.692Z,100134.72
2023-02-23T06:32:28.446Z,100128.84
2023-02-23T06:34:56.610Z,100129.19
2023-02-23T06:37:25.501Z,100137.81
2023-02-23T06:39:53.379Z,100135.78
2023-02-23T06:42:20.952Z,100137.13
2023-02-23T06:44:48.860Z,100143.72
2023-02-23T06:47:16.688Z,100145.41
2023-02-23T06:49:44.607Z,100142.50
2023-02-23T06:52:13.838Z,100148.88
2023-02-23T06:54:42.540Z,100146.06
2023-02-23T06:57:11.190Z,100149.41
2023-02-23T06:59:39.411Z,100144.25
2023-02-23T07:02:07.468Z,100147.59
2023-02-23T07:04:35.440Z,100148.59
2023-02-23T07:07:03.858Z,100143.78
2023-02-23T07:09:32.095Z,100155.47
2023-02-23T07:12:00.990Z,100151.34
2023-02-23T07:14:29.538Z,100152.66
2023-02-23T07:16:57.741Z,100153.09
2023-02-23T07:19:26.109Z,100160.91
2023-02-23T07:21:53.887Z,100150.97
2023-02-23T07:24:43.249Z,100160.56
2023-02-23T07:27:22.262Z,100158.00
2023-02-23T07:29:51.464Z,100160.00
2023-02-23T07:32:19.260Z,100156.63
2023-02-23T07:34:47.957Z,100160.66
2023-02-23T07:37:17.156Z,100157.72
2023-02-23T07:39:45.269Z,100162.38
2023-02-23T07:42:13.222Z,100159.81
2023-02-23T07:44:41.170Z,100160.38
2023-02-23T07:47:08.760Z,100164.72
2023-02-23T07:49:36.631Z,100157.19
2023-02-23T07:52:04.352Z,100159.53
2023-02-23T07:54:32.290Z,100156.28
2023-02-23T07:57:00.389Z,100164.75
2023-02-23T07:59:28.175Z,100160.25
2023-02-23T08:01:55.883Z,100159.56
2023-02-23T08:04:24.258Z,100153.09
2023-02-23T08:06:51.797Z,100159.22
2023-02-23T08:09:19.951Z,100156.63
2023-02-23T08:11:47.425Z,100155.94
2023-02-23T08:14:15.432Z,100164.09
2023-02-23T08:16:42.963Z,100163.84
2023-02-23T08:19:11.142Z,100162.34
2023-02-23T08:21:38.699Z,100167.91
2023-02-23T08:24:07.138Z,100163.66
2023-02-23T08:26:37.788Z,100168.00
2023-02-23T08:29:06.013Z,100164.28
2023-02-23T08:31:33.918Z,100170.19
2023-02-23T08:34:02.389Z,100170.69
2023-02-23T08:36:29.790Z,100174.34
2023-02-23T08:38:58.175Z,100174.59
2023-02-23T08:41:26.309Z,100164.69
2023-02-23T08:43:54.547Z,100170.50
2023-02-23T08:46:22.344Z,100168.94
2023-02-23T08:48:50.183Z,100163.28
2023-02-23T08:51:18.653Z,100175.44
2023-02-23T08:53:46.766Z,100174.81
2023-02-23T08:56:15.501Z,100176.88
2023-02-23T08:58:43.722Z,100173.53
2023-02-23T09:01:22.097Z,100181.38
2023-02-23T09:03:50.417Z,100173.75
2023-02-23T09:06:22.899Z,100182.31
2023-02-23T09:08:51.214Z,100185.56
2023-02-23T09:11:19.161Z,100186.09
2023-02-23T09:13:47.734Z,100178.09
2023-02-23T09:16:15.335Z,100190.91
2023-02-23T09:18:44.055Z,100182.84
2023-02-23T09:21:25.489Z,100193.69
2023-02-23T09:23:56.131Z,100186.38
2023-02-23T09:26:24.556Z,100189.91
2023-02-23T09:28:52.439Z,100187.72
2023-02-23T09:31:23.922Z,100196.16
2023-02-23T09:33:53.314Z,100191.63
2023-02-23T09:36:25.063Z,100187.16
2023-02-23T09:38:57.194Z,100188.50
2023-02-23T09:41:54.213Z,100186.78
2023-02-23T09:44:41.272Z,100183.91
2023-02-23T09:47:45.339Z,100185.72
2023-02-23T09:50:26.913Z,100180.59
2023-02-23T09:53:21.785Z,100183.00
2023-02-23T09:55:51.998Z,100184.72
2023-02-23T09:58:30.409Z,100183.66
2023-02-23T10:01:27.164Z,100179.63
2023-02-23T10:04:31.383Z,100179.44
2023-02-23T10:07:18.696Z,100181.50
2023-02-23T10:10:07.325Z,100187.44
2023-02-23T10:12:58.847Z,100178.72
2023-02-23T10:15:47.384Z,100181.91
2023-02-23T10:18:46.202Z,100185.91
2023-02-23T10:21:40.395Z,100183.75
2023-02-23T10:24:35.431Z,100178.53
2023-02-23T10:27:25.743Z,100169.78
2023-02-23T10:29:56.544Z,100174.53
2023-02-23T10:32:57.797Z,100173.50
2023-02-23T10:35:29.993Z,100165.00
2023-02-23T10:37:59.948Z,100169.94
2023-02-23T10:40:33.012Z,100170.38
2023-02-23T10:43:03.347Z,100158.84
2023-02-23T10:45:52.056Z,100154.72
2023-02-23T10:48:27.749Z,100155.97
2023-02-23T10:51:03.179Z,100147.56
2023-02-23T10:53:36.668Z,100149.94
2023-02-23T10:56:25.176Z,100148.88
2023-02-23T10:58:59.008Z,100142.78
2023-02-23T11:02:00.985Z,100143.22
2023-02-23T11:04:35.111Z,100141.66
2023-02-23T11:07:18.630Z,100134.69
2023-02-23T11:09:48.095Z,100140.09
2023-02-23T11:12:41.995Z,100140.91
2023-02-23T11:15:31.962Z,100138.28
2023-02-23T11:18:07.792Z,100133.66
2023-02-23T11:20:43.312Z,100130.66
2023-02-23T11:23:36.754Z,100127.22
2023-02-23T11:26:32.988Z,100128.00
2023-02-23T11:29:31.219Z,100115.31
2023-02-23T11:31:59.756Z,100118.09
2023-02-23T11:34:41.286Z,100116.59
2023-02-23T11:37:23.158Z,100116.59
2023-02-23T11:39:59.379Z,100119.34
2023-02-23T11:42:35.198Z,100117.41
2023-02-23T11:45:17.254Z,100121.34
2023-02-23T11:47:55.266Z,100114.41
2023-02-23T11:50:36.396Z,100107.44
2023-02-23T11:53:13.838Z,100101.22
2023-02-23T11:55:54.845Z,100103.16
2023-02-23T11:58:35.937Z,100102.78
2023-02-23T12:01:14.378Z,100092.34
2023-02-23T12:03:58.528Z,100091.16
2023-02-23T12:06:30.603Z,100085.72
2023-02-23T12:09:02.962Z,100091.91
2023-02-23T12:11:37.663Z,100091.16
2023-02-23T12:14:26.235Z,100082.63
2023-02-23T12:17:05.293Z,100084.16
2023-02-23T12:20:11.278Z,100075.59
2023-02-23T12:22:48.749Z,100072.47
2023-02-23T12:26:11.788Z,100072.44
2023-02-23T12:28:45.944Z,100060.34
2023-02-23T12:31:40.433Z,100073.88
2023-02-23T12:34:38.577Z,100063.66
2023-02-23T12:37:28.395Z,100058.91
2023-02-23T12:40:28.082Z,100058.72
2023-02-23T12:43:27.008Z,100052.38
2023-02-23T12:46:21.925Z,100056.91
2023-02-23T12:49:19.236Z,100052.09
2023-02-23T12:52:02.183Z,100041.03
2023-02-23T12:54:31.772Z,100048.44
2023-02-23T12:57:28.016Z,100051.41
2023-02-23T13:00:36.518Z,100055.13
2023-02-23T13:03:31.318Z,100051.41
2023-02-23T13:06:30.462Z,100049.56
2023-02-23T13:09:31.749Z,100052.66
2023-02-23T13:12:17.007Z,100055.53
2023-02-23T13:15:19.656Z,100049.63
2023-02-23T13:18:01.719Z,100044.72
2023-02-23T13:20:55.946Z,100040.94
2023-02-23T13:23:36.183Z,100034.88
2023-02-23T13:26:28.764Z,100043.75
2023-02-23T13:29:02.651Z,100046.50
2023-02-23T13:31:37.478Z,100042.44
2023-02-23T13:34:12.382Z,100032.84
2023-02-23T13:36:42.174Z,100041.72
2023-02-23T13:39:31.223Z,100035.03
2023-02-23T13:42:28.188Z,100030.41
2023-02-23T13:45:26.321Z,100032.59
2023-02-23T13:48:14.235Z,100029.25
2023-02-23T13:51:06.169Z,100036.09
2023-02-23T13:54:06.226Z,100031.94
2023-02-23T13:56:44.442Z,100027.88
2023-02-23T13:59:52.772Z,100025.28
2023-02-23T14:02:41.317Z,100030.53
2023-02-23T14:05:27.544Z,100036.94
2023-02-23T14:08:06.098Z,100033.25
2023-02-23T14:10:37.633Z,100025.38
2023-02-23T14:13:28.997Z,100024.44
2023-02-23T14:16:23.143Z,100028.78
2023-02-23T14:19:12.800Z,100033.13
2023-02-23T14:22:04.226Z,100032.59
2023-02-23T14:24:31.893Z,100029.00
2023-02-23T14:27:07.366Z,100032.75
2023-02-23T14:30:05.700Z,100033.84
2023-02-23T14:32:49.314Z,100034.97
2023-02-23T14:35:40.202Z,100031.38
2023-02-23T14:38:07.971Z,100030.53
2023-02-23T14:40:41.979Z,100026.75
2023-02-23T14:43:43.477Z,100027.50
2023-02-23T14:46:21.492Z,100032.75
2023-02-23T14:49:10.490Z,100033.09
2023-02-23T14:51:48.149Z,100034.47
2023-02-23T14:54:27.330Z,100036.22
2023-02-23T14:56:58.249Z,100029.09
2023-02-23T14:59:49.015Z,100033.50
2023-02-23T15:02:24.937Z,100022.66
2023-02-23T15:04:53.379Z,100020.34
2023-02-23T15:07:40.009Z,100018.28
2023-02-23T15:10:43.561Z,100022.06
2023-02-23T15:13:34.268Z,100018.31
2023-02-23T15:16:13.029Z,100027.38
2023-02-23T15:18:44.675Z,100025.63
2023-02-23T15:21:19.509Z,100023.06
2023-02-23T15:23:53.033Z,100035.34
2023-02-23T15:26:35.445Z,100029.97
2023-02-23T15:29:10.152Z,100031.78
2023-02-23T15:31:50.257Z,100023.75
2023-02-23T15:34:20.507Z,100026.28
2023-02-23T15:37:06.226Z,100033.03
2023-02-23T15:39:54.240Z,100031.44
2023-02-23T15:42:29.047Z,100036.59
2023-02-23T15:45:05.323Z,100037.97
2023-02-23T15:47:37.714Z,100033.72
2023-02-23T15:50:24.709Z,100036.00
2023-02-23T15:53:08.954Z,100025.88
2023-02-23T15:55:38.361Z,100037.16
2023-02-23T15:58:17.933Z,100038.25
2023-02-23T16:01:08.898Z,100037.75
2023-02-23T16:03:44.423Z,100043.41
2023-02-23T16:06:33.408Z,100039.78
2023-02-23T16:09:05.822Z,100047.69
2023-02-23T16:11:37.090Z,100043.91
2023-02-23T16:14:06.888Z,100046.66
2023-02-23T16:16:35.876Z,100053.59
2023-02-23T16:19:05.122Z,100053.53
2023-02-23T16:21:33.132Z,100053.09
2023-02-23T16:24:13.846Z,100056.53
2023-02-23T16:26:44.465Z,100058.78
2023-02-23T16:29:21.267Z,100045.97
2023-02-23T16:31:59.923Z,100043.53
2023-02-23T16:34:37.264Z,100051.97
2023-02-23T16:37:23.076Z,100051.47
2023-02-23T16:39:51.834Z,100052.97
2023-02-23T16:42:34.879Z,100056.00
2023-02-23T16:45:03.053Z,100052.47
2023-02-23T16:47:43.799Z,100053.94
2023-02-23T16:50:24.423Z,100051.19
2023-02-23T16:52:53.710Z,100054.56
2023-02-23T16:55:28.559Z,100054.56
2023-02-23T16:58:02.330Z,100052.09
2023-02-23T17:00:33.676Z,100059.41
2023-02-23T17:03:02.248Z,100060.44
2023-02-23T17:05:30.529Z,100064.25
2023-02-23T17:07:59.231Z,100067.25
2023-02-23T17:10:32.527Z,100070.59
2023-02-23T17:13:12.961Z,100073.19
2023-02-23T17:15:51.750Z,100069.19
2023-02-23T17:20:52.739Z,100074.38
2023-02-23T17:23:23.346Z,100078.44
2023-02-23T17:25:51.309Z,100067.88
2023-02-23T17:28:19.324Z,100065.88
2023-02-23T17:30:47.683Z,100065.03
2023-02-23T17:33:15.465Z,100071.59
2023-02-23T17:35:44.071Z,100069.22
2023-02-23T17:38:11.601Z,100082.28
2023-02-23T17:40:39.544Z,100079.03
2023-02-23T17:43:08.086Z,100085.13
2023-02-23T17:45:36.192Z,100072.28
2023-02-23T17:48:03.790Z,100080.19
2023-02-23T17:50:31.617Z,100075.41
2023-02-23T17:52:59.239Z,100076.44
2023-02-23T17:55:27.068Z,100073.63
2023-02-23T17:57:54.599Z,100069.66
2023-02-23T18:00:22.374Z,100073.09
2023-02-23T18:02:51.092Z,100070.34
2023-02-23T18:05:18.888Z,100078.72
2023-02-23T18:07:48.447Z,100076.31
2023-02-23T18:10:17.328Z,100085.44
2023-02-23T18:12:45.529Z,100088.44
2023-02-23T18:15:13.260Z,100086.09
2023-02-23T18:17:41.288Z,100087.22
2023-02-23T18:20:10.998Z,100092.19
2023-02-23T18:22:39.397Z,100088.38
2023-02-23T18:25:07.952Z,100094.47
2023-02-23T18:27:35.812Z,100089.00
2023-02-23T18:30:04.135Z,100101.66
2023-02-23T18:32:32.525Z,100103.53
2023-02-23T18:35:01.163Z,100099.19
2023-02-23T18:37:29.740Z,100097.25
2023-02-23T18:39:59.359Z,100095.31
2023-02-23T18:42:27.302Z,100097.59
2023-02-23T18:44:54.797Z,100092.97
2023-02-23T18:47:22.801Z,100097.25
2023-02-23T18:49:50.582Z,100094.91
2023-02-23T18:52:18.381Z,100097.66
2023-02-23T18:54:46.241Z,100092.69
2023-02-23T18:57:14.171Z,100097.03
2023-02-23T18:59:41.817Z,100103.09
2023-02-23T19:02:10.935Z,100101.81
2023-02-23T19:04:39.392Z,100106.72
2023-02-23T19:07:07.264Z,100093.19
2023-02-23T19:09:39.738Z,100107.06
2023-02-23T19:12:07.849Z,100101.75
2023-02-23T19:14:48.908Z,100107.13
2023-02-23T19:17:17.724Z,100113.72
2023-02-23T19:19:45.471Z,100114.56
2023-02-23T19:22:13.440Z,100109.88
2023-02-23T19:24:41.221Z,100117.97
2023-02-23T19:27:10.146Z,100110.97
2023-02-23T19:29:37.825Z,100120.09
2023-02-23T19:32:06.994Z,100119.41
2023-02-23T19:34:36.255Z,100111.75
2023-02-23T19:37:04.082Z,100121.00
2023-02-23T19:39:31.897Z,100120.22
2023-02-23T19:41:59.718Z,100119.81
2023-02-23T19:44:27.311Z,100124.84
2023-02-23T19:46:55.439Z,100115.50
2023-02-23T19:49:23.671Z,100121.56
2023-02-23T19:51:53.146Z,100124.59
2023-02-23T19:54:20.999Z,100123.47
2023-02-23T19:56:50.565Z,100120.31
2023-02-23T19:59:19.093Z,100123.00
2023-02-23T20:01:47.245Z,100115.25
2023-02-23T20:04:14.968Z,100120.19
2023-02-23T20:06:47.193Z,100122.81
2023-02-23T20:09:15.626Z,100119.63
2023-02-23T20:11:43.576Z,100109.47
2023-02-23T20:14:12.539Z,100110.09
2023-02-23T20:16:40.853Z,100113.88
2023-02-23T20:19:08.551Z,100122.28
2023-02-23T20:22:16.143Z,100116.91
2023-02-23T20:24:44.107Z,100112.63
2023-02-23T20:27:12.044Z,100115.34
2023-02-23T20:29:39.724Z,100112.22
2023-02-23T20:32:08.646Z,100104.84
2023-02-23T20:34:39.625Z,100108.97
2023-02-23T20:37:08.444Z,100103.59
2023-02-23T20:39:37.351Z,100104.28
2023-02-23T20:42:05.947Z,100108.09
2023-02-23T20:44:33.804Z,100102.63
2023-02-23T20:48:01.569Z,100092.56
2023-02-23T20:51:12.906Z,100094.84
2023-02-23T20:53:42.434Z,100095.59
2023-02-23T20:56:11.044Z,100086.78
2023-02-23T20:58:39.837Z,100093.25
2023-02-23T21:01:20.587Z,100082.44
2023-02-23T21:03:54.056Z,100088.53
2023-02-23T21:06:26.038Z,100091.03
2023-02-23T21:09:02.940Z,100084.38
2023-02-23T21:11:34.218Z,100082.03
2023-02-23T21:14:41.310Z,100084.66
2023-02-23T21:18:01.004Z,100083.34
2023-02-23T21:20:30.328Z,100094.34
2023-02-23T21:22:58.650Z,100094.25
2023-02-23T21:25:28.607Z,100095.72
2023-02-23T21:27:57.255Z,100093.75
2023-02-23T21:30:28.720Z,100091.31
2023-02-23T21:32:57.917Z,100075.13
2023-02-23T21:35:25.615Z,100083.06
2023-02-23T21:37:53.753Z,100080.03
2023-02-23T21:40:22.309Z,100087.31
2023-02-23T21:42:51.318Z,100079.53
2023-02-23T21:45:19.536Z,100076.69
2023-02-23T21:47:49.137Z,100080.13
2023-02-23T21:50:19.857Z,100079.34
2023-02-23T21:52:50.513Z,100083.16
2023-02-23T21:55:22.153Z,100070.97
2023-02-23T21:57:52.117Z,100075.34
2023-02-23T22:00:21.110Z,100072.59
2023-02-23T22:02:50.573Z,100079.78
2023-02-23T22:05:20.499Z,100082.34
2023-02-23T22:07:52.192Z,100075.75
2023-02-23T22:10:23.350Z,100079.09
2023-02-23T22:12:56.022Z,100071.84
2023-02-23T22:15:29.824Z,100077.22
2023-02-23T22:17:58.567Z,100074.53
2023-02-23T22:20:26.380Z,100069.50
2023-02-23T22:22:54.842Z,100072.53
2023-02-23T22:25:22.626Z,100076.75
2023-02-23T22:27:51.738Z,100076.44
2023-02-23T22:30:23.928Z,100079.09
2023-02-23T22:32:52.168Z,100074.88
2023-02-23T22:35:19.942Z,100081.69
2023-02-23T22:37:48.365Z,100080.50
2023-02-23T22:40:16.890Z,100075.91
2023-02-23T22:42:49.803Z,100069.44
2023-02-23T22:45:19.010Z,100072.53
2023-02-23T22:47:48.376Z,100083.69
2023-02-23T22:50:19.507Z,100080.34
2023-02-23T22:52:47.684Z,100075.84
2023-02-23T22:55:15.344Z,100072.03
2023-02-23T22:57:44.070Z,100075.59
2023-02-23T23:00:14.678Z,100073.81
2023-02-23T23:02:43.189Z,100074.25
2023-02-23T23:05:13.410Z,100070.00
2023-02-23T23:07:42.035Z,100072.59
2023-02-23T23:10:12.178Z,100082.41
2023-02-23T23:12:40.517Z,100086.28
2023-02-23T23:15:17.274Z,100083.94
2023-02-23T23:17:48.637Z,100089.75
2023-02-23T23:20:25.686Z,100088.28
2023-02-23T23:22:57.513Z,100091.81
2023-02-23T23:25:25.687Z,100084.88
2023-02-23T23:27:56.255Z,100084.13
2023-02-23T23:30:29.413Z,100076.41
2023-02-23T23:32:58.457Z,100076.50
2023-02-23T23:35:26.246Z,100087.75
2023-02-23T23:37:54.075Z,100080.63
2023-02-23T23:40:24.600Z,100082.00
2023-02-23T23:42:53.351Z,100081.44
2023-02-23T23:45:24.446Z,100086.72
2023-02-23T23:47:52.421Z,100080.59
2023-02-23T23:50:24.458Z,100087.84
2023-02-23T23:52:54.390Z,100081.69
2023-02-23T23:55:22.428Z,100077.47
2023-02-23T23:57:50.236Z,100074.78
